sensor_id;sensor_type;location;lat;lon;timestamp;pressure;altitude;pressure_sealevel;temperature;humidity
42603;BME280;28233;55.748;48.752;2022-11-24T00:00:12;98468.09;;;-1.42;100.00
42603;BME280;28233;55.748;48.752;2022-11-24T00:02:15;98461.09;;;-1.43;100.00
42603;BME280;28233;55.748;48.752;2022-11-24T00:04:18;98469.19;;;-1.43;100.00
42603;BME280;28233;55.748;48.752;2022-11-24T00:06:21;98471.06;;;-1.43;100.00
42603;BME280;28233;55.748;48.752;2022-11-24T00:08:24;98458.66;;;-1.44;100.00
42603;BME280;28233;55.748;48.752;2022-11-24T00:10:27;98464.59;;;-1.42;100.00
42603;BME280;28233;55.748;48.752;2022-11-24T00:12:29;98457.84;;;-1.45;100.00
42603;BME280;28233;55.748;48.752;2022-11-24T00:14:32;98467.53;;;-1.44;100.00
42603;BME280;28233;55.748;48.752;2022-11-24T00:16:36;98475.63;;;-1.44;100.00
42603;BME280;28233;55.748;48.752;2022-11-24T00:18:40;98456.22;;;-1.46;100.00
42603;BME280;28233;55.748;48.752;2022-11-24T00:20:51;98459.22;;;-1.47;100.00
42603;BME280;28233;55.748;48.752;2022-11-24T00:22:54;98458.13;;;-1.46;100.00
42603;BME280;28233;55.748;48.752;2022-11-24T00:24:57;98458.41;;;-1.48;100.00
42603;BME280;28233;55.748;48.752;2022-11-24T00:27:00;98471.88;;;-1.48;100.00
42603;BME280;28233;55.748;48.752;2022-11-24T00:29:04;98471.03;;;-1.49;100.00
42603;BME280;28233;55.748;48.752;2022-11-24T00:33:25;98470.53;;;-1.45;100.00
42603;BME280;28233;55.748;48.752;2022-11-24T00:35:28;98470.25;;;-1.44;100.00
42603;BME280;28233;55.748;48.752;2022-11-24T00:37:30;98472.41;;;-1.41;100.00
42603;BME280;28233;55.748;48.752;2022-11-24T00:39:33;98462.69;;;-1.42;100.00
42603;BME280;28233;55.748;48.752;2022-11-24T00:41:36;98462.69;;;-1.42;100.00
42603;BME280;28233;55.748;48.752;2022-11-24T00:43:39;98477.25;;;-1.43;100.00
42603;BME280;28233;55.748;48.752;2022-11-24T00:45:41;98476.97;;;-1.41;100.00
42603;BME280;28233;55.748;48.752;2022-11-24T00:47:44;98475.38;;;-1.42;100.00
42603;BME280;28233;55.748;48.752;2022-11-24T00:49:47;98484.53;;;-1.43;100.00
42603;BME280;28233;55.748;48.752;2022-11-24T00:51:50;98478.88;;;-1.47;100.00
42603;BME280;28233;55.748;48.752;2022-11-24T00:53:53;98481.00;;;-1.49;100.00
42603;BME280;28233;55.748;48.752;2022-11-24T00:55:58;98475.63;;;-1.54;100.00
42603;BME280;28233;55.748;48.752;2022-11-24T00:58:00;98486.66;;;-1.56;100.00
42603;BME280;28233;55.748;48.752;2022-11-24T01:00:04;98476.44;;;-1.59;100.00
42603;BME280;28233;55.748;48.752;2022-11-24T01:02:07;98479.38;;;-1.60;100.00
42603;BME280;28233;55.748;48.752;2022-11-24T01:04:10;98479.66;;;-1.67;100.00
42603;BME280;28233;55.748;48.752;2022-11-24T01:06:15;98483.97;;;-1.71;100.00
42603;BME280;28233;55.748;48.752;2022-11-24T01:08:18;98479.63;;;-1.72;100.00
42603;BME280;28233;55.748;48.752;2022-11-24T01:10:21;98500.91;;;-1.76;100.00
42603;BME280;28233;55.748;48.752;2022-11-24T01:12:24;98493.09;;;-1.82;100.00
42603;BME280;28233;55.748;48.752;2022-11-24T01:14:27;98494.44;;;-1.80;100.00
42603;BME280;28233;55.748;48.752;2022-11-24T01:16:32;98504.13;;;-1.84;100.00
42603;BME280;28233;55.748;48.752;2022-11-24T01:18:35;98502.75;;;-1.86;100.00
42603;BME280;28233;55.748;48.752;2022-11-24T01:20:38;98499.53;;;-1.88;100.00
42603;BME280;28233;55.748;48.752;2022-11-24T01:22:41;98499.81;;;-1.90;100.00
42603;BME280;28233;55.748;48.752;2022-11-24T01:24:44;98504.09;;;-1.89;100.00
42603;BME280;28233;55.748;48.752;2022-11-24T01:26:47;98507.88;;;-1.90;100.00
42603;BME280;28233;55.748;48.752;2022-11-24T01:28:56;98507.59;;;-1.94;100.00
42603;BME280;28233;55.748;48.752;2022-11-24T01:31:01;98504.34;;;-1.96;100.00
42603;BME280;28233;55.748;48.752;2022-11-24T01:33:04;98510.28;;;-1.99;100.00
42603;BME280;28233;55.748;48.752;2022-11-24T01:35:08;98510.53;;;-2.00;100.00
42603;BME280;28233;55.748;48.752;2022-11-24T01:37:11;98507.03;;;-2.01;100.00
42603;BME280;28233;55.748;48.752;2022-11-24T01:39:13;98511.34;;;-2.00;100.00
42603;BME280;28233;55.748;48.752;2022-11-24T01:41:21;98512.66;;;-2.02;100.00
42603;BME280;28233;55.748;48.752;2022-11-24T01:43:25;98514.56;;;-2.03;100.00
42603;BME280;28233;55.748;48.752;2022-11-24T01:47:38;98524.78;;;-2.05;100.00
42603;BME280;28233;55.748;48.752;2022-11-24T01:49:51;98524.78;;;-2.05;100.00
42603;BME280;28233;55.748;48.752;2022-11-24T01:52:20;98528.31;;;-2.04;100.00
42603;BME280;28233;55.748;48.752;2022-11-24T01:54:27;98520.72;;;-2.07;100.00
42603;BME280;28233;55.748;48.752;2022-11-24T01:56:34;98525.03;;;-2.11;100.00
42603;BME280;28233;55.748;48.752;2022-11-24T01:58:39;98521.50;;;-2.17;100.00
42603;BME280;28233;55.748;48.752;2022-11-24T02:00:45;98532.25;;;-2.22;100.00
42603;BME280;28233;55.748;48.752;2022-11-24T02:02:48;98537.38;;;-2.21;100.00
42603;BME280;28233;55.748;48.752;2022-11-24T02:04:51;98539.53;;;-2.23;100.00
42603;BME280;28233;55.748;48.752;2022-11-24T02:06:56;98537.88;;;-2.24;100.00
42603;BME280;28233;55.748;48.752;2022-11-24T02:09:13;98550.53;;;-2.24;100.00
42603;BME280;28233;55.748;48.752;2022-11-24T02:11:20;98550.78;;;-2.26;100.00
42603;BME280;28233;55.748;48.752;2022-11-24T02:13:25;98546.25;;;-2.25;100.00
42603;BME280;28233;55.748;48.752;2022-11-24T02:15:28;98549.44;;;-2.28;100.00
42603;BME280;28233;55.748;48.752;2022-11-24T02:17:31;98547.03;;;-2.30;100.00
42603;BME280;28233;55.748;48.752;2022-11-24T02:19:57;98551.28;;;-2.34;100.00
42603;BME280;28233;55.748;48.752;2022-11-24T02:22:02;98544.31;;;-2.35;100.00
42603;BME280;28233;55.748;48.752;2022-11-24T02:24:15;98558.53;;;-2.40;100.00
42603;BME280;28233;55.748;48.752;2022-11-24T02:26:37;98551.81;;;-2.37;100.00
42603;BME280;28233;55.748;48.752;2022-11-24T02:28:41;98559.34;;;-2.39;100.00
42603;BME280;28233;55.748;48.752;2022-11-24T02:30:44;98560.94;;;-2.38;100.00
42603;BME280;28233;55.748;48.752;2022-11-24T02:32:47;98554.47;;;-2.42;100.00
42603;BME280;28233;55.748;48.752;2022-11-24T02:34:59;98558.78;;;-2.46;100.00
42603;BME280;28233;55.748;48.752;2022-11-24T02:37:02;98562.25;;;-2.46;100.00
42603;BME280;28233;55.748;48.752;2022-11-24T02:39:12;98562.00;;;-2.44;100.00
42603;BME280;28233;55.748;48.752;2022-11-24T02:41:18;98567.41;;;-2.44;100.00
42603;BME280;28233;55.748;48.752;2022-11-24T02:43:22;98563.34;;;-2.47;100.00
42603;BME280;28233;55.748;48.752;2022-11-24T02:45:26;98566.56;;;-2.45;100.00
42603;BME280;28233;55.748;48.752;2022-11-24T02:47:29;98569.53;;;-2.46;100.00
42603;BME280;28233;55.748;48.752;2022-11-24T02:49:32;98571.13;;;-2.45;100.00
42603;BME280;28233;55.748;48.752;2022-11-24T02:51:35;98573.03;;;-2.46;100.00
42603;BME280;28233;55.748;48.752;2022-11-24T02:53:38;98574.34;;;-2.48;100.00
42603;BME280;28233;55.748;48.752;2022-11-24T02:55:40;98571.91;;;-2.50;100.00
42603;BME280;28233;55.748;48.752;2022-11-24T02:57:43;98579.19;;;-2.45;100.00
42603;BME280;28233;55.748;48.752;2022-11-24T02:59:46;98576.25;;;-2.44;100.00
42603;BME280;28233;55.748;48.752;2022-11-24T03:01:48;98571.41;;;-2.47;100.00
42603;BME280;28233;55.748;48.752;2022-11-24T03:03:51;98578.94;;;-2.49;100.00
42603;BME280;28233;55.748;48.752;2022-11-24T03:05:54;98576.50;;;-2.50;100.00
42603;BME280;28233;55.748;48.752;2022-11-24T03:07:57;98581.63;;;-2.49;100.00
42603;BME280;28233;55.748;48.752;2022-11-24T03:09:59;98574.31;;;-2.53;100.00
42603;BME280;28233;55.748;48.752;2022-11-24T03:12:02;98575.13;;;-2.53;100.00
42603;BME280;28233;55.748;48.752;2022-11-24T03:14:06;98581.06;;;-2.51;100.00
42603;BME280;28233;55.748;48.752;2022-11-24T03:16:08;98579.19;;;-2.50;100.00
42603;BME280;28233;55.748;48.752;2022-11-24T03:18:11;98588.84;;;-2.49;100.00
42603;BME280;28233;55.748;48.752;2022-11-24T03:20:14;98585.09;;;-2.53;100.00
42603;BME280;28233;55.748;48.752;2022-11-24T03:22:17;98583.75;;;-2.51;100.00
42603;BME280;28233;55.748;48.752;2022-11-24T03:24:20;98591.84;;;-2.46;100.00
42603;BME280;28233;55.748;48.752;2022-11-24T03:26:23;98588.91;;;-2.44;100.00
42603;BME280;28233;55.748;48.752;2022-11-24T03:28:27;98595.09;;;-2.44;100.00
42603;BME280;28233;55.748;48.752;2022-11-24T03:30:29;98589.72;;;-2.44;100.00
42603;BME280;28233;55.748;48.752;2022-11-24T03:32:33;98583.53;;;-2.44;100.00
42603;BME280;28233;55.748;48.752;2022-11-24T03:34:35;98594.22;;;-2.49;100.00
42603;BME280;28233;55.748;48.752;2022-11-24T03:36:38;98584.00;;;-2.52;100.00
42603;BME280;28233;55.748;48.752;2022-11-24T03:38:41;98591.28;;;-2.53;100.00
42603;BME280;28233;55.748;48.752;2022-11-24T03:40:44;98592.56;;;-2.61;100.00
42603;BME280;28233;55.748;48.752;2022-11-24T03:42:46;98594.16;;;-2.65;100.00
42603;BME280;28233;55.748;48.752;2022-11-24T03:44:49;98596.88;;;-2.60;100.00
42603;BME280;28233;55.748;48.752;2022-11-24T03:46:52;98599.34;;;-2.53;100.00
42603;BME280;28233;55.748;48.752;2022-11-24T03:48:55;98590.94;;;-2.62;100.00
42603;BME280;28233;55.748;48.752;2022-11-24T03:50:59;98601.13;;;-2.64;100.00
42603;BME280;28233;55.748;48.752;2022-11-24T03:53:03;98601.66;;;-2.67;100.00
42603;BME280;28233;55.748;48.752;2022-11-24T03:55:06;98605.94;;;-2.66;100.00
42603;BME280;28233;55.748;48.752;2022-11-24T03:57:08;98610.75;;;-2.73;100.00
42603;BME280;28233;55.748;48.752;2022-11-24T03:59:11;98621.56;;;-2.68;100.00
42603;BME280;28233;55.748;48.752;2022-11-24T04:01:14;98627.44;;;-2.71;100.00
42603;BME280;28233;55.748;48.752;2022-11-24T04:03:17;98620.72;;;-2.68;100.00
42603;BME280;28233;55.748;48.752;2022-11-24T04:05:20;98623.16;;;-2.67;100.00
42603;BME280;28233;55.748;48.752;2022-11-24T04:07:23;98624.78;;;-2.66;100.00
42603;BME280;28233;55.748;48.752;2022-11-24T04:09:26;98620.47;;;-2.67;100.00
42603;BME280;28233;55.748;48.752;2022-11-24T04:11:28;98620.22;;;-2.65;100.00
42603;BME280;28233;55.748;48.752;2022-11-24T04:13:49;98628.00;;;-2.69;100.00
42603;BME280;28233;55.748;48.752;2022-11-24T04:15:52;98625.31;;;-2.69;100.00
42603;BME280;28233;55.748;48.752;2022-11-24T04:17:56;98619.38;;;-2.71;100.00
42603;BME280;28233;55.748;48.752;2022-11-24T04:19:59;98625.84;;;-2.67;100.00
42603;BME280;28233;55.748;48.752;2022-11-24T04:22:03;98617.22;;;-2.69;100.00
42603;BME280;28233;55.748;48.752;2022-11-24T04:24:05;98630.94;;;-2.70;100.00
42603;BME280;28233;55.748;48.752;2022-11-24T04:26:08;98636.06;;;-2.69;100.00
42603;BME280;28233;55.748;48.752;2022-11-24T04:28:11;98645.19;;;-2.70;100.00
42603;BME280;28233;55.748;48.752;2022-11-24T04:30:14;98638.19;;;-2.71;100.00
42603;BME280;28233;55.748;48.752;2022-11-24T04:32:17;98632.81;;;-2.71;100.00
42603;BME280;28233;55.748;48.752;2022-11-24T04:34:19;98647.34;;;-2.72;100.00
42603;BME280;28233;55.748;48.752;2022-11-24T04:36:22;98650.22;;;-2.79;100.00
42603;BME280;28233;55.748;48.752;2022-11-24T04:38:25;98649.97;;;-2.77;100.00
42603;BME280;28233;55.748;48.752;2022-11-24T04:40:47;98660.47;;;-2.76;100.00
42603;BME280;28233;55.748;48.752;2022-11-24T04:42:53;98660.22;;;-2.74;100.00
42603;BME280;28233;55.748;48.752;2022-11-24T04:44:56;98658.28;;;-2.79;100.00
42603;BME280;28233;55.748;48.752;2022-11-24T04:46:59;98659.91;;;-2.78;100.00
42603;BME280;28233;55.748;48.752;2022-11-24T04:49:02;98664.75;;;-2.80;100.00
42603;BME280;28233;55.748;48.752;2022-11-24T04:51:06;98669.03;;;-2.79;100.00
42603;BME280;28233;55.748;48.752;2022-11-24T04:53:09;98671.75;;;-2.79;100.00
42603;BME280;28233;55.748;48.752;2022-11-24T04:55:12;98676.88;;;-2.77;100.00
42603;BME280;28233;55.748;48.752;2022-11-24T04:57:16;98676.03;;;-2.78;100.00
42603;BME280;28233;55.748;48.752;2022-11-24T04:59:19;98689.47;;;-2.78;100.00
42603;BME280;28233;55.748;48.752;2022-11-24T05:01:22;98687.06;;;-2.79;100.00
42603;BME280;28233;55.748;48.752;2022-11-24T05:03:25;98692.44;;;-2.79;100.00
42603;BME280;28233;55.748;48.752;2022-11-24T05:05:27;98690.00;;;-2.81;100.00
42603;BME280;28233;55.748;48.752;2022-11-24T05:07:30;98691.38;;;-2.78;100.00
42603;BME280;28233;55.748;48.752;2022-11-24T05:09:33;98698.09;;;-2.76;100.00
42603;BME280;28233;55.748;48.752;2022-11-24T05:11:56;98703.25;;;-2.74;100.00
42603;BME280;28233;55.748;48.752;2022-11-24T05:13:59;98700.56;;;-2.74;100.00
42603;BME280;28233;55.748;48.752;2022-11-24T05:16:03;98708.63;;;-2.74;100.00
42603;BME280;28233;55.748;48.752;2022-11-24T05:18:10;98708.94;;;-2.70;100.00
42603;BME280;28233;55.748;48.752;2022-11-24T05:20:14;98706.16;;;-2.76;100.00
42603;BME280;28233;55.748;48.752;2022-11-24T05:22:17;98698.34;;;-2.82;100.00
42603;BME280;28233;55.748;48.752;2022-11-24T05:24:20;98700.50;;;-2.79;100.00
42603;BME280;28233;55.748;48.752;2022-11-24T05:26:23;98705.59;;;-2.78;100.00
42603;BME280;28233;55.748;48.752;2022-11-24T05:28:27;98714.25;;;-2.76;100.00
42603;BME280;28233;55.748;48.752;2022-11-24T05:30:31;98711.78;;;-2.82;100.00
42603;BME280;28233;55.748;48.752;2022-11-24T05:32:34;98728.19;;;-2.79;100.00
42603;BME280;28233;55.748;48.752;2022-11-24T05:34:37;98719.06;;;-2.78;100.00
42603;BME280;28233;55.748;48.752;2022-11-24T05:36:40;98728.50;;;-2.75;100.00
42603;BME280;28233;55.748;48.752;2022-11-24T05:38:55;98729.31;;;-2.74;100.00
42603;BME280;28233;55.748;48.752;2022-11-24T05:41:03;98738.19;;;-2.74;100.00
42603;BME280;28233;55.748;48.752;2022-11-24T05:43:14;98737.13;;;-2.73;100.00
42603;BME280;28233;55.748;48.752;2022-11-24T05:45:19;98743.56;;;-2.74;100.00
42603;BME280;28233;55.748;48.752;2022-11-24T05:47:23;98739.28;;;-2.75;100.00
42603;BME280;28233;55.748;48.752;2022-11-24T05:49:26;98736.59;;;-2.75;100.00
42603;BME280;28233;55.748;48.752;2022-11-24T05:51:29;98744.09;;;-2.77;100.00
42603;BME280;28233;55.748;48.752;2022-11-24T05:53:32;98752.19;;;-2.72;100.00
42603;BME280;28233;55.748;48.752;2022-11-24T05:55:36;98752.75;;;-2.70;100.00
42603;BME280;28233;55.748;48.752;2022-11-24T05:57:39;98748.44;;;-2.71;100.00
42603;BME280;28233;55.748;48.752;2022-11-24T05:59:43;98754.38;;;-2.69;100.00
42603;BME280;28233;55.748;48.752;2022-11-24T06:01:46;98750.56;;;-2.73;100.00
42603;BME280;28233;55.748;48.752;2022-11-24T06:03:50;98754.88;;;-2.72;100.00
42603;BME280;28233;55.748;48.752;2022-11-24T06:05:53;98775.88;;;-2.69;100.00
42603;BME280;28233;55.748;48.752;2022-11-24T06:07:58;98769.19;;;-2.66;100.00
42603;BME280;28233;55.748;48.752;2022-11-24T06:10:00;98782.38;;;-2.65;100.00
42603;BME280;28233;55.748;48.752;2022-11-24T06:12:11;98771.13;;;-2.62;100.00
42603;BME280;28233;55.748;48.752;2022-11-24T06:14:13;98783.00;;;-2.58;100.00
42603;BME280;28233;55.748;48.752;2022-11-24T06:16:16;98776.53;;;-2.57;100.00
42603;BME280;28233;55.748;48.752;2022-11-24T06:18:19;98778.75;;;-2.53;100.00
42603;BME280;28233;55.748;48.752;2022-11-24T06:20:22;98784.69;;;-2.51;100.00
42603;BME280;28233;55.748;48.752;2022-11-24T06:22:32;98797.06;;;-2.50;100.00
42603;BME280;28233;55.748;48.752;2022-11-24T06:24:35;98804.03;;;-2.49;100.00
42603;BME280;28233;55.748;48.752;2022-11-24T06:26:38;98810.81;;;-2.47;100.00
42603;BME280;28233;55.748;48.752;2022-11-24T06:28:41;98823.38;;;-2.52;100.00
42603;BME280;28233;55.748;48.752;2022-11-24T06:30:43;98806.72;;;-2.49;100.00
42603;BME280;28233;55.748;48.752;2022-11-24T06:32:47;98809.41;;;-2.49;100.00
42603;BME280;28233;55.748;48.752;2022-11-24T06:34:51;98810.59;;;-2.40;100.00
42603;BME280;28233;55.748;48.752;2022-11-24T06:36:53;98820.88;;;-2.37;100.00
42603;BME280;28233;55.748;48.752;2022-11-24T06:38:56;98816.53;;;-2.38;100.00
42603;BME280;28233;55.748;48.752;2022-11-24T06:41:04;98812.28;;;-2.34;100.00
42603;BME280;28233;55.748;48.752;2022-11-24T06:43:07;98815.81;;;-2.28;100.00
42603;BME280;28233;55.748;48.752;2022-11-24T06:45:10;98815.38;;;-2.20;100.00
42603;BME280;28233;55.748;48.752;2022-11-24T06:47:13;98824.25;;;-2.20;100.00
42603;BME280;28233;55.748;48.752;2022-11-24T06:49:16;98818.81;;;-2.25;100.00
42603;BME280;28233;55.748;48.752;2022-11-24T06:51:19;98817.75;;;-2.24;100.00
42603;BME280;28233;55.748;48.752;2022-11-24T06:53:22;98823.44;;;-2.20;100.00
42603;BME280;28233;55.748;48.752;2022-11-24T06:55:25;98821.56;;;-2.20;100.00
42603;BME280;28233;55.748;48.752;2022-11-24T06:57:27;98822.13;;;-2.18;100.00
42603;BME280;28233;55.748;48.752;2022-11-24T06:59:32;98829.19;;;-2.11;100.00
42603;BME280;28233;55.748;48.752;2022-11-24T07:01:35;98825.72;;;-2.07;100.00
42603;BME280;28233;55.748;48.752;2022-11-24T07:03:38;98830.63;;;-1.99;100.00
42603;BME280;28233;55.748;48.752;2022-11-24T07:05:41;98836.38;;;-1.85;100.00
42603;BME280;28233;55.748;48.752;2022-11-24T07:07:44;98831.84;;;-1.79;100.00
42603;BME280;28233;55.748;48.752;2022-11-24T07:09:47;98844.28;;;-1.73;100.00
42603;BME280;28233;55.748;48.752;2022-11-24T07:11:50;98845.41;;;-1.69;100.00
42603;BME280;28233;55.748;48.752;2022-11-24T07:13:53;98851.00;;;-1.76;100.00
42603;BME280;28233;55.748;48.752;2022-11-24T07:16:18;98867.63;;;-1.84;100.00
42603;BME280;28233;55.748;48.752;2022-11-24T07:18:21;98868.38;;;-1.88;100.00
42603;BME280;28233;55.748;48.752;2022-11-24T07:20:24;98872.94;;;-1.94;100.00
42603;BME280;28233;55.748;48.752;2022-11-24T07:22:27;98868.88;;;-1.97;100.00
42603;BME280;28233;55.748;48.752;2022-11-24T07:24:29;98872.13;;;-1.95;100.00
42603;BME280;28233;55.748;48.752;2022-11-24T07:26:32;98878.00;;;-1.98;100.00
42603;BME280;28233;55.748;48.752;2022-11-24T07:28:38;98881.22;;;-2.01;100.00
42603;BME280;28233;55.748;48.752;2022-11-24T07:30:41;98878.75;;;-2.02;100.00
42603;BME280;28233;55.748;48.752;2022-11-24T07:32:44;98866.94;;;-2.01;100.00
42603;BME280;28233;55.748;48.752;2022-11-24T07:34:47;98873.19;;;-1.96;100.00
42603;BME280;28233;55.748;48.752;2022-11-24T07:36:50;98881.25;;;-1.96;100.00
42603;BME280;28233;55.748;48.752;2022-11-24T07:38:52;98867.50;;;-1.99;100.00
42603;BME280;28233;55.748;48.752;2022-11-24T07:41:06;98875.03;;;-2.01;100.00
42603;BME280;28233;55.748;48.752;2022-11-24T07:43:09;98876.91;;;-2.02;100.00
42603;BME280;28233;55.748;48.752;2022-11-24T07:45:20;98861.81;;;-2.03;100.00
42603;BME280;28233;55.748;48.752;2022-11-24T07:47:22;98869.44;;;-1.95;100.00
42603;BME280;28233;55.748;48.752;2022-11-24T07:49:25;98873.50;;;-1.92;100.00
42603;BME280;28233;55.748;48.752;2022-11-24T07:51:28;98871.59;;;-1.92;100.00
42603;BME280;28233;55.748;48.752;2022-11-24T07:53:32;98872.97;;;-1.89;100.00
42603;BME280;28233;55.748;48.752;2022-11-24T07:55:34;98882.97;;;-1.84;100.00
42603;BME280;28233;55.748;48.752;2022-11-24T07:57:37;98883.50;;;-1.87;100.00
42603;BME280;28233;55.748;48.752;2022-11-24T07:59:40;98890.00;;;-1.83;100.00
42603;BME280;28233;55.748;48.752;2022-11-24T08:01:42;98891.06;;;-1.84;100.00
42603;BME280;28233;55.748;48.752;2022-11-24T08:03:45;98887.56;;;-1.85;100.00
42603;BME280;28233;55.748;48.752;2022-11-24T08:05:58;98902.38;;;-1.82;100.00
42603;BME280;28233;55.748;48.752;2022-11-24T08:08:21;98906.84;;;-1.93;100.00
42603;BME280;28233;55.748;48.752;2022-11-24T08:10:24;98903.63;;;-1.95;100.00
42603;BME280;28233;55.748;48.752;2022-11-24T08:12:27;98914.41;;;-1.95;100.00
42603;BME280;28233;55.748;48.752;2022-11-24T08:14:30;98909.78;;;-2.00;100.00
42603;BME280;28233;55.748;48.752;2022-11-24T08:16:33;98913.44;;;-2.11;100.00
42603;BME280;28233;55.748;48.752;2022-11-24T08:18:36;98904.75;;;-2.18;100.00
42603;BME280;28233;55.748;48.752;2022-11-24T08:20:39;98919.03;;;-2.40;99.91
42603;BME280;28233;55.748;48.752;2022-11-24T08:22:41;98913.84;;;-2.46;100.00
42603;BME280;28233;55.748;48.752;2022-11-24T08:24:44;98916.59;;;-2.41;100.00
42603;BME280;28233;55.748;48.752;2022-11-24T08:26:49;98919.28;;;-2.41;100.00
42603;BME280;28233;55.748;48.752;2022-11-24T08:28:56;98916.53;;;-2.46;100.00
42603;BME280;28233;55.748;48.752;2022-11-24T08:31:04;98916.47;;;-2.51;100.00
42603;BME280;28233;55.748;48.752;2022-11-24T08:33:07;98933.66;;;-2.52;100.00
42603;BME280;28233;55.748;48.752;2022-11-24T08:35:10;98934.75;;;-2.53;100.00
42603;BME280;28233;55.748;48.752;2022-11-24T08:37:15;98934.75;;;-2.53;100.00
42603;BME280;28233;55.748;48.752;2022-11-24T08:39:18;98929.66;;;-2.50;100.00
42603;BME280;28233;55.748;48.752;2022-11-24T08:41:21;98937.03;;;-2.62;100.00
42603;BME280;28233;55.748;48.752;2022-11-24T08:43:24;98926.75;;;-2.70;100.00
42603;BME280;28233;55.748;48.752;2022-11-24T08:45:27;98934.34;;;-2.84;100.00
42603;BME280;28233;55.748;48.752;2022-11-24T08:47:32;98934.72;;;-2.76;100.00
42603;BME280;28233;55.748;48.752;2022-11-24T08:49:36;98931.72;;;-2.79;100.00
42603;BME280;28233;55.748;48.752;2022-11-24T08:51:39;98932.47;;;-2.84;100.00
42603;BME280;28233;55.748;48.752;2022-11-24T08:53:42;98929.91;;;-2.95;100.00
42603;BME280;28233;55.748;48.752;2022-11-24T08:55:45;98931.28;;;-2.93;100.00
42603;BME280;28233;55.748;48.752;2022-11-24T08:57:47;98938.59;;;-2.88;100.00
42603;BME280;28233;55.748;48.752;2022-11-24T08:59:50;98938.47;;;-2.99;100.00
42603;BME280;28233;55.748;48.752;2022-11-24T09:01:53;98929.91;;;-2.95;100.00
42603;BME280;28233;55.748;48.752;2022-11-24T09:03:56;98936.66;;;-2.93;100.00
42603;BME280;28233;55.748;48.752;2022-11-24T09:05:59;98942.81;;;-2.92;100.00
42603;BME280;28233;55.748;48.752;2022-11-24T09:08:02;98940.19;;;-2.87;100.00
42603;BME280;28233;55.748;48.752;2022-11-24T09:10:06;98943.06;;;-2.94;100.00
42603;BME280;28233;55.748;48.752;2022-11-24T09:12:08;98939.56;;;-2.94;100.00
42603;BME280;28233;55.748;48.752;2022-11-24T09:14:15;98947.06;;;-2.97;100.00
42603;BME280;28233;55.748;48.752;2022-11-24T09:16:23;98949.69;;;-3.02;100.00
42603;BME280;28233;55.748;48.752;2022-11-24T09:18:27;98954.50;;;-3.04;100.00
42603;BME280;28233;55.748;48.752;2022-11-24T09:20:31;98954.25;;;-3.02;100.00
42603;BME280;28233;55.748;48.752;2022-11-24T09:22:34;98964.03;;;-2.96;100.00
42603;BME280;28233;55.748;48.752;2022-11-24T09:24:39;98950.59;;;-3.13;100.00
42603;BME280;28233;55.748;48.752;2022-11-24T09:26:42;98956.16;;;-3.20;100.00
42603;BME280;28233;55.748;48.752;2022-11-24T09:28:49;98959.56;;;-3.07;100.00
42603;BME280;28233;55.748;48.752;2022-11-24T09:31:00;98965.34;;;-2.99;100.00
42603;BME280;28233;55.748;48.752;2022-11-24T09:33:03;98968.34;;;-2.95;100.00
42603;BME280;28233;55.748;48.752;2022-11-24T09:35:05;98966.16;;;-2.98;100.00
42603;BME280;28233;55.748;48.752;2022-11-24T09:37:08;98971.44;;;-3.03;100.00
42603;BME280;28233;55.748;48.752;2022-11-24T09:39:11;98968.44;;;-3.07;100.00
42603;BME280;28233;55.748;48.752;2022-11-24T09:41:42;98970.03;;;-3.06;100.00
42603;BME280;28233;55.748;48.752;2022-11-24T09:46:14;98974.50;;;-2.94;100.00
42603;BME280;28233;55.748;48.752;2022-11-24T09:48:26;98976.09;;;-2.99;100.00
42603;BME280;28233;55.748;48.752;2022-11-24T09:50:33;98968.91;;;-2.93;100.00
42603;BME280;28233;55.748;48.752;2022-11-24T09:54:52;98980.13;;;-2.79;100.00
42603;BME280;28233;55.748;48.752;2022-11-24T09:56:58;98977.16;;;-2.78;100.00
42603;BME280;28233;55.748;48.752;2022-11-24T09:59:13;98990.88;;;-2.79;100.00
42603;BME280;28233;55.748;48.752;2022-11-24T10:03:43;98991.91;;;-2.80;100.00
42603;BME280;28233;55.748;48.752;2022-11-24T10:05:48;98999.50;;;-2.77;100.00
42603;BME280;28233;55.748;48.752;2022-11-24T10:08:16;98996.75;;;-2.82;100.00
42603;BME280;28233;55.748;48.752;2022-11-24T10:10:31;99000.28;;;-2.99;100.00
42603;BME280;28233;55.748;48.752;2022-11-24T10:12:58;99003.44;;;-3.02;100.00
42603;BME280;28233;55.748;48.752;2022-11-24T10:15:24;99009.97;;;-2.98;100.00
42603;BME280;28233;55.748;48.752;2022-11-24T10:22:42;99019.41;;;-2.95;100.00
42603;BME280;28233;55.748;48.752;2022-11-24T10:25:07;99022.31;;;-2.97;100.00
42603;BME280;28233;55.748;48.752;2022-11-24T10:27:20;99024.44;;;-3.15;100.00
42603;BME280;28233;55.748;48.752;2022-11-24T10:29:33;99021.19;;;-3.17;100.00
42603;BME280;28233;55.748;48.752;2022-11-24T10:31:43;99018.78;;;-3.19;100.00
42603;BME280;28233;55.748;48.752;2022-11-24T10:33:47;99024.72;;;-3.17;100.00
42603;BME280;28233;55.748;48.752;2022-11-24T10:35:51;99026.25;;;-3.21;100.00
42603;BME280;28233;55.748;48.752;2022-11-24T10:40:41;99030.09;;;-3.34;100.00
42603;BME280;28233;55.748;48.752;2022-11-24T10:43:01;99038.03;;;-3.39;100.00
42603;BME280;28233;55.748;48.752;2022-11-24T10:45:12;99036.19;;;-3.38;100.00
42603;BME280;28233;55.748;48.752;2022-11-24T10:47:17;99037.97;;;-3.27;100.00
42603;BME280;28233;55.748;48.752;2022-11-24T10:49:26;99045.63;;;-3.36;100.00
42603;BME280;28233;55.748;48.752;2022-11-24T10:51:52;99046.66;;;-3.37;100.00
42603;BME280;28233;55.748;48.752;2022-11-24T10:54:20;99050.81;;;-3.46;100.00
42603;BME280;28233;55.748;48.752;2022-11-24T10:56:23;99051.63;;;-3.46;100.00
42603;BME280;28233;55.748;48.752;2022-11-24T10:58:31;99053.41;;;-3.51;100.00
42603;BME280;28233;55.748;48.752;2022-11-24T11:00:39;99052.50;;;-3.57;100.00
42603;BME280;28233;55.748;48.752;2022-11-24T11:02:42;99059.63;;;-3.63;100.00
42603;BME280;28233;55.748;48.752;2022-11-24T11:04:44;99058.03;;;-3.64;100.00